sensor_id;sensor_type;location;lat;lon;timestamp;pressure;altitude;pressure_sealevel;temperature;humidity
24306;BME280;12423;48.768;8.850;2023-02-21T00:00:08;97452.09;;;3.20;100.00
24306;BME280;12423;48.768;8.850;2023-02-21T00:02:28;97457.06;;;3.08;100.00
24306;BME280;12423;48.768;8.850;2023-02-21T00:04:47;97465.91;;;3.25;100.00
24306;BME280;12423;48.768;8.850;2023-02-21T00:07:06;97458.72;;;3.28;100.00
24306;BME280;12423;48.768;8.850;2023-02-21T00:09:26;97452.72;;;3.25;100.00
24306;BME280;12423;48.768;8.850;2023-02-21T00:11:45;97454.75;;;3.20;100.00
24306;BME280;12423;48.768;8.850;2023-02-21T00:14:05;97453.81;;;3.21;100.00
24306;BME280;12423;48.768;8.850;2023-02-21T00:16:24;97453.06;;;3.19;100.00
24306;BME280;12423;48.768;8.850;2023-02-21T00:18:44;97458.63;;;3.12;100.00
24306;BME280;12423;48.768;8.850;2023-02-21T00:21:04;97452.09;;;3.20;100.00
24306;BME280;12423;48.768;8.850;2023-02-21T00:23:24;97452.09;;;3.20;100.00
24306;BME280;12423;48.768;8.850;2023-02-21T00:25:44;97453.06;;;3.19;100.00
24306;BME280;12423;48.768;8.850;2023-02-21T00:28:03;97442.56;;;3.17;100.00
24306;BME280;12423;48.768;8.850;2023-02-21T00:30:22;97449.13;;;3.08;100.00
24306;BME280;12423;48.768;8.850;2023-02-21T00:32:42;97447.97;;;2.97;100.00
24306;BME280;12423;48.768;8.850;2023-02-21T00:35:04;97447.81;;;3.00;100.00
24306;BME280;12423;48.768;8.850;2023-02-21T00:37:23;97437.03;;;3.04;100.00
24306;BME280;12423;48.768;8.850;2023-02-21T00:39:43;97445.66;;;3.08;100.00
24306;BME280;12423;48.768;8.850;2023-02-21T00:42:03;97447.66;;;3.03;100.00
24306;BME280;12423;48.768;8.850;2023-02-21T00:44:23;97439.75;;;3.03;100.00
24306;BME280;12423;48.768;8.850;2023-02-21T00:46:42;97431.78;;;2.85;100.00
24306;BME280;12423;48.768;8.850;2023-02-21T00:49:04;97441.50;;;2.85;100.00
24306;BME280;12423;48.768;8.850;2023-02-21T00:51:28;97444.13;;;2.85;100.00
24306;BME280;12423;48.768;8.850;2023-02-21T00:53:47;97447.88;;;2.81;100.00
24306;BME280;12423;48.768;8.850;2023-02-21T00:56:07;97447.03;;;2.61;100.00
24306;BME280;12423;48.768;8.850;2023-02-21T00:58:27;97448.59;;;2.65;100.00
24306;BME280;12423;48.768;8.850;2023-02-21T01:00:46;97448.00;;;2.78;100.00
24306;BME280;12423;48.768;8.850;2023-02-21T01:03:06;97444.28;;;2.82;100.00
24306;BME280;12423;48.768;8.850;2023-02-21T01:05:26;97445.44;;;2.76;100.00
24306;BME280;12423;48.768;8.850;2023-02-21T01:07:46;97446.44;;;2.73;100.00
24306;BME280;12423;48.768;8.850;2023-02-21T01:10:06;97437.81;;;2.70;100.00
24306;BME280;12423;48.768;8.850;2023-02-21T01:12:25;97427.22;;;2.52;100.00
24306;BME280;12423;48.768;8.850;2023-02-21T01:14:45;97420.59;;;2.44;100.00
24306;BME280;12423;48.768;8.850;2023-02-21T01:17:05;97427.81;;;2.59;100.00
24306;BME280;12423;48.768;8.850;2023-02-21T01:19:25;97424.84;;;2.65;100.00
24306;BME280;12423;48.768;8.850;2023-02-21T01:21:44;97427.88;;;2.38;100.00
24306;BME280;12423;48.768;8.850;2023-02-21T01:24:05;97423.50;;;2.56;100.00
24306;BME280;12423;48.768;8.850;2023-02-21T01:26:25;97419.06;;;2.57;100.00
24306;BME280;12423;48.768;8.850;2023-02-21T01:28:46;97418.25;;;2.56;100.00
24306;BME280;12423;48.768;8.850;2023-02-21T01:31:06;97421.28;;;2.66;100.00
24306;BME280;12423;48.768;8.850;2023-02-21T01:33:26;97422.66;;;2.56;100.00
24306;BME280;12423;48.768;8.850;2023-02-21T01:35:46;97421.78;;;2.55;100.00
24306;BME280;12423;48.768;8.850;2023-02-21T01:38:05;97426.16;;;2.56;100.00
24306;BME280;12423;48.768;8.850;2023-02-21T01:40:25;97420.94;;;2.55;100.00
24306;BME280;12423;48.768;8.850;2023-02-21T01:42:45;97416.81;;;2.49;100.00
24306;BME280;12423;48.768;8.850;2023-02-21T01:47:40;97411.25;;;2.55;100.00
24306;BME280;12423;48.768;8.850;2023-02-21T01:50:01;97410.25;;;2.58;100.00
24306;BME280;12423;48.768;8.850;2023-02-21T01:52:22;97412.75;;;2.61;100.00
24306;BME280;12423;48.768;8.850;2023-02-21T01:54:46;97406.09;;;2.52;100.00
24306;BME280;12423;48.768;8.850;2023-02-21T01:57:07;97407.81;;;2.53;100.00
24306;BME280;12423;48.768;8.850;2023-02-21T01:59:27;97403.09;;;2.60;100.00
24306;BME280;12423;48.768;8.850;2023-02-21T02:02:00;97404.97;;;2.58;100.00
24306;BME280;12423;48.768;8.850;2023-02-21T02:04:21;97402.47;;;2.55;100.00
24306;BME280;12423;48.768;8.850;2023-02-21T02:06:41;97407.19;;;2.48;100.00
24306;BME280;12423;48.768;8.850;2023-02-21T02:09:17;97403.56;;;2.51;100.00
24306;BME280;12423;48.768;8.850;2023-02-21T02:16:42;97391.81;;;2.39;100.00
24306;BME280;12423;48.768;8.850;2023-02-21T02:18:55;97390.59;;;2.46;100.00
24306;BME280;12423;48.768;8.850;2023-02-21T02:21:08;97393.16;;;2.48;100.00
24306;BME280;12423;48.768;8.850;2023-02-21T02:28:31;97380.63;;;2.34;100.00
24306;BME280;12423;48.768;8.850;2023-02-21T02:35:40;97379.91;;;2.30;100.00
24306;BME280;12423;48.768;8.850;2023-02-21T02:38:06;97378.38;;;2.26;100.00
24306;BME280;12423;48.768;8.850;2023-02-21T02:42:51;97379.22;;;2.27;100.00
24306;BME280;12423;48.768;8.850;2023-02-21T02:45:14;97383.06;;;2.19;100.00
24306;BME280;12423;48.768;8.850;2023-02-21T02:47:29;97370.59;;;2.23;100.00
24306;BME280;12423;48.768;8.850;2023-02-21T02:49:33;97381.84;;;2.27;100.00
24306;BME280;12423;48.768;8.850;2023-02-21T02:51:36;97381.00;;;2.26;100.00
24306;BME280;12423;48.768;8.850;2023-02-21T02:53:39;97378.72;;;2.18;100.00
24306;BME280;12423;48.768;8.850;2023-02-21T02:55:46;97376.94;;;2.19;100.00
24306;BME280;12423;48.768;8.850;2023-02-21T02:57:48;97366.53;;;2.16;100.00
24306;BME280;12423;48.768;8.850;2023-02-21T02:59:52;97373.38;;;2.20;100.00
24306;BME280;12423;48.768;8.850;2023-02-21T03:02:23;97371.88;;;2.14;100.00
24306;BME280;12423;48.768;8.850;2023-02-21T03:12:18;97375.44;;;1.94;100.00
24306;BME280;12423;48.768;8.850;2023-02-21T03:14:26;97382.19;;;1.81;100.00
24306;BME280;12423;48.768;8.850;2023-02-21T03:16:50;97382.31;;;1.78;100.00
24306;BME280;12423;48.768;8.850;2023-02-21T03:19:06;97380.19;;;1.86;100.00
24306;BME280;12423;48.768;8.850;2023-02-21T03:21:12;97382.56;;;1.92;100.00
24306;BME280;12423;48.768;8.850;2023-02-21T03:23:17;97386.28;;;1.88;100.00
24306;BME280;12423;48.768;8.850;2023-02-21T03:25:20;97376.84;;;1.82;100.00
24306;BME280;12423;48.768;8.850;2023-02-21T03:27:22;97375.78;;;1.68;100.00
24306;BME280;12423;48.768;8.850;2023-02-21T03:29:43;97364.06;;;1.94;100.00
24306;BME280;12423;48.768;8.850;2023-02-21T03:31:54;97373.75;;;1.93;100.00
24306;BME280;12423;48.768;8.850;2023-02-21T03:33:56;97366.47;;;1.98;100.00
24306;BME280;12423;48.768;8.850;2023-02-21T03:36:03;97373.38;;;2.01;100.00
24306;BME280;12423;48.768;8.850;2023-02-21T03:38:05;97371.31;;;2.08;100.00
24306;BME280;12423;48.768;8.850;2023-02-21T03:40:16;97370.31;;;2.10;100.00
24306;BME280;12423;48.768;8.850;2023-02-21T03:42:21;97368.59;;;2.09;100.00
24306;BME280;12423;48.768;8.850;2023-02-21T03:44:22;97368.03;;;2.02;100.00
24306;BME280;12423;48.768;8.850;2023-02-21T03:46:23;97376.06;;;1.99;100.00
24306;BME280;12423;48.768;8.850;2023-02-21T03:48:24;97365.25;;;2.06;100.00
24306;BME280;12423;48.768;8.850;2023-02-21T03:50:26;97364.13;;;2.11;100.00
24306;BME280;12423;48.768;8.850;2023-02-21T03:52:27;97366.75;;;1.92;100.00
24306;BME280;12423;48.768;8.850;2023-02-21T03:54:29;97373.94;;;2.08;100.00
24306;BME280;12423;48.768;8.850;2023-02-21T03:56:32;97367.81;;;2.07;100.00
24306;BME280;12423;48.768;8.850;2023-02-21T03:58:42;97369.88;;;2.00;100.00
24306;BME280;12423;48.768;8.850;2023-02-21T04:00:43;97371.53;;;1.84;100.00
24306;BME280;12423;48.768;8.850;2023-02-21T04:02:44;97374.78;;;1.89;100.00
24306;BME280;12423;48.768;8.850;2023-02-21T04:04:56;97373.81;;;1.92;100.00
24306;BME280;12423;48.768;8.850;2023-02-21T04:06:59;97364.69;;;1.99;100.00
24306;BME280;12423;48.768;8.850;2023-02-21T04:09:00;97363.53;;;2.05;100.00
24306;BME280;12423;48.768;8.850;2023-02-21T04:11:01;97369.69;;;2.05;100.00
24306;BME280;12423;48.768;8.850;2023-02-21T04:13:06;97367.75;;;2.09;100.00
24306;BME280;12423;48.768;8.850;2023-02-21T04:15:13;97369.69;;;2.05;100.00
24306;BME280;12423;48.768;8.850;2023-02-21T04:17:14;97359.97;;;2.06;100.00
24306;BME280;12423;48.768;8.850;2023-02-21T04:19:16;97371.16;;;2.11;100.00
24306;BME280;12423;48.768;8.850;2023-02-21T04:21:18;97362.81;;;2.01;100.00
24306;BME280;12423;48.768;8.850;2023-02-21T04:23:20;97367.41;;;1.97;100.00
24306;BME280;12423;48.768;8.850;2023-02-21T04:25:21;97369.38;;;1.92;100.00
24306;BME280;12423;48.768;8.850;2023-02-21T04:27:31;97373.09;;;1.88;100.00
24306;BME280;12423;48.768;8.850;2023-02-21T04:29:34;97365.97;;;1.90;100.00
24306;BME280;12423;48.768;8.850;2023-02-21T04:31:35;97369.28;;;1.75;100.00
24306;BME280;12423;48.768;8.850;2023-02-21T04:33:42;97364.53;;;1.83;100.00
24306;BME280;12423;48.768;8.850;2023-02-21T04:35:46;97367.53;;;1.75;100.00
24306;BME280;12423;48.768;8.850;2023-02-21T04:37:56;97371.16;;;1.73;100.00
24306;BME280;12423;48.768;8.850;2023-02-21T04:39:58;97365.38;;;1.64;100.00
24306;BME280;12423;48.768;8.850;2023-02-21T04:41:59;97366.38;;;1.62;100.00
24306;BME280;12423;48.768;8.850;2023-02-21T04:44:00;97368.66;;;1.70;100.00
24306;BME280;12423;48.768;8.850;2023-02-21T04:46:05;97373.00;;;1.71;100.00
24306;BME280;12423;48.768;8.850;2023-02-21T04:48:06;97374.75;;;1.51;100.00
24306;BME280;12423;48.768;8.850;2023-02-21T04:50:07;97362.22;;;1.37;100.00
24306;BME280;12423;48.768;8.850;2023-02-21T04:52:08;97371.28;;;1.51;100.00
24306;BME280;12423;48.768;8.850;2023-02-21T04:54:09;97367.44;;;1.58;100.00
24306;BME280;12423;48.768;8.850;2023-02-21T04:56:10;97366.78;;;1.53;100.00
24306;BME280;12423;48.768;8.850;2023-02-21T04:58:12;97367.50;;;1.56;100.00
24306;BME280;12423;48.768;8.850;2023-02-21T05:00:14;97361.84;;;1.45;100.00
24306;BME280;12423;48.768;8.850;2023-02-21T05:02:15;97362.66;;;1.47;100.00
24306;BME280;12423;48.768;8.850;2023-02-21T05:04:16;97366.50;;;1.59;100.00
24306;BME280;12423;48.768;8.850;2023-02-21T05:06:20;97367.38;;;1.59;100.00
24306;BME280;12423;48.768;8.850;2023-02-21T05:08:21;97358.03;;;1.52;100.00
24306;BME280;12423;48.768;8.850;2023-02-21T05:10:23;97368.78;;;1.47;100.00
24306;BME280;12423;48.768;8.850;2023-02-21T05:12:24;97366.47;;;1.40;100.00
24306;BME280;12423;48.768;8.850;2023-02-21T05:14:25;97364.19;;;1.32;100.00
24306;BME280;12423;48.768;8.850;2023-02-21T05:16:26;97361.41;;;1.35;100.00
24306;BME280;12423;48.768;8.850;2023-02-21T05:18:27;97357.66;;;1.41;100.00
24306;BME280;12423;48.768;8.850;2023-02-21T05:20:28;97363.44;;;1.28;100.00
24306;BME280;12423;48.768;8.850;2023-02-21T05:22:29;97359.72;;;1.34;100.00
24306;BME280;12423;48.768;8.850;2023-02-21T05:24:32;97360.75;;;1.30;100.00
24306;BME280;12423;48.768;8.850;2023-02-21T05:26:36;97353.06;;;1.25;100.00
24306;BME280;12423;48.768;8.850;2023-02-21T05:28:38;97364.31;;;1.29;100.00
24306;BME280;12423;48.768;8.850;2023-02-21T05:30:40;97360.88;;;1.27;100.00
24306;BME280;12423;48.768;8.850;2023-02-21T05:32:41;97361.75;;;1.27;100.00
24306;BME280;12423;48.768;8.850;2023-02-21T05:34:42;97376.16;;;1.19;100.00
24306;BME280;12423;48.768;8.850;2023-02-21T05:36:44;97367.41;;;1.18;100.00
24306;BME280;12423;48.768;8.850;2023-02-21T05:38:47;97366.31;;;1.24;100.00
24306;BME280;12423;48.768;8.850;2023-02-21T05:40:49;97367.81;;;1.09;100.00
24306;BME280;12423;48.768;8.850;2023-02-21T05:42:50;97369.38;;;1.13;100.00
24306;BME280;12423;48.768;8.850;2023-02-21T05:44:51;97361.94;;;1.23;100.00
24306;BME280;12423;48.768;8.850;2023-02-21T05:46:52;97360.28;;;1.20;100.00
24306;BME280;12423;48.768;8.850;2023-02-21T05:48:55;97365.72;;;1.17;100.00
24306;BME280;12423;48.768;8.850;2023-02-21T05:50:56;97357.88;;;1.16;100.00
24306;BME280;12423;48.768;8.850;2023-02-21T05:52:58;97362.41;;;1.12;100.00
24306;BME280;12423;48.768;8.850;2023-02-21T05:54:59;97365.97;;;1.11;100.00
24306;BME280;12423;48.768;8.850;2023-02-21T05:57:00;97357.00;;;1.15;100.00
24306;BME280;12423;48.768;8.850;2023-02-21T05:59:01;97353.47;;;1.16;100.00
24306;BME280;12423;48.768;8.850;2023-02-21T06:01:04;97364.78;;;1.18;100.00
24306;BME280;12423;48.768;8.850;2023-02-21T06:03:05;97365.25;;;1.07;100.00
24306;BME280;12423;48.768;8.850;2023-02-21T06:05:06;97368.53;;;1.13;100.00
24306;BME280;12423;48.768;8.850;2023-02-21T06:07:07;97369.56;;;1.08;100.00
24306;BME280;12423;48.768;8.850;2023-02-21T06:09:08;97367.66;;;1.12;100.00
24306;BME280;12423;48.768;8.850;2023-02-21T06:11:10;97365.72;;;1.17;100.00
24306;BME280;12423;48.768;8.850;2023-02-21T06:13:11;97364.44;;;1.05;100.00
24306;BME280;12423;48.768;8.850;2023-02-21T06:15:12;97369.91;;;1.01;100.00
24306;BME280;12423;48.768;8.850;2023-02-21T06:17:13;97358.81;;;0.94;100.00
24306;BME280;12423;48.768;8.850;2023-02-21T06:19:15;97363.00;;;0.98;100.00
24306;BME280;12423;48.768;8.850;2023-02-21T06:21:16;97364.50;;;1.04;100.00
24306;BME280;12423;48.768;8.850;2023-02-21T06:23:17;97363.59;;;1.05;100.00
24306;BME280;12423;48.768;8.850;2023-02-21T06:25:19;97369.16;;;0.97;100.00
24306;BME280;12423;48.768;8.850;2023-02-21T06:27:20;97361.28;;;0.97;100.00
24306;BME280;12423;48.768;8.850;2023-02-21T06:29:21;97359.53;;;0.98;100.00
24306;BME280;12423;48.768;8.850;2023-02-21T06:31:22;97364.97;;;0.93;100.00
24306;BME280;12423;48.768;8.850;2023-02-21T06:33:23;97363.47;;;1.08;100.00
24306;BME280;12423;48.768;8.850;2023-02-21T06:35:24;97361.69;;;1.08;100.00
24306;BME280;12423;48.768;8.850;2023-02-21T06:37:25;97357.88;;;1.16;100.00
24306;BME280;12423;48.768;8.850;2023-02-21T06:39:26;97346.34;;;1.18;100.00
24306;BME280;12423;48.768;8.850;2023-02-21T06:41:29;97353.66;;;1.32;100.00
24306;BME280;12423;48.768;8.850;2023-02-21T06:43:30;97347.72;;;1.27;100.00
24306;BME280;12423;48.768;8.850;2023-02-21T06:45:31;97344.50;;;1.20;100.00
24306;BME280;12423;48.768;8.850;2023-02-21T06:47:32;97344.97;;;1.09;100.00
24306;BME280;12423;48.768;8.850;2023-02-21T06:49:33;97340.19;;;1.19;100.00
24306;BME280;12423;48.768;8.850;2023-02-21T06:51:37;97333.72;;;1.26;100.00
24306;BME280;12423;48.768;8.850;2023-02-21T06:53:40;97328.19;;;1.33;100.00
24306;BME280;12423;48.768;8.850;2023-02-21T06:55:41;97334.56;;;1.27;100.00
24306;BME280;12423;48.768;8.850;2023-02-21T06:57:42;97334.56;;;1.27;100.00
24306;BME280;12423;48.768;8.850;2023-02-21T06:59:43;97333.56;;;1.29;100.00
24306;BME280;12423;48.768;8.850;2023-02-21T07:01:44;97333.72;;;1.26;100.00
24306;BME280;12423;48.768;8.850;2023-02-21T07:03:45;97331.84;;;1.28;100.00
24306;BME280;12423;48.768;8.850;2023-02-21T07:05:47;97343.84;;;1.36;100.00
24306;BME280;12423;48.768;8.850;2023-02-21T07:07:48;97347.97;;;1.41;100.00
24306;BME280;12423;48.768;8.850;2023-02-21T07:09:49;97346.88;;;1.26;100.00
24306;BME280;12423;48.768;8.850;2023-02-21T07:11:50;97343.97;;;1.12;100.00
24306;BME280;12423;48.768;8.850;2023-02-21T07:13:52;97352.47;;;1.19;100.00
24306;BME280;12423;48.768;8.850;2023-02-21T07:15:53;97350.94;;;1.34;100.00
24306;BME280;12423;48.768;8.850;2023-02-21T07:17:54;97357.53;;;1.44;100.00
24306;BME280;12423;48.768;8.850;2023-02-21T07:19:55;97356.69;;;1.62;100.00
24306;BME280;12423;48.768;8.850;2023-02-21T07:21:56;97353.56;;;1.73;100.00
24306;BME280;12423;48.768;8.850;2023-02-21T07:23:57;97354.50;;;1.91;100.00
24306;BME280;12423;48.768;8.850;2023-02-21T07:25:59;97354.50;;;1.91;100.00
24306;BME280;12423;48.768;8.850;2023-02-21T07:28:00;97346.16;;;2.00;100.00
24306;BME280;12423;48.768;8.850;2023-02-21T07:30:01;97347.59;;;2.08;100.00
24306;BME280;12423;48.768;8.850;2023-02-21T07:32:03;97345.75;;;1.91;100.00
24306;BME280;12423;48.768;8.850;2023-02-21T07:34:04;97360.13;;;2.02;100.00
24306;BME280;12423;48.768;8.850;2023-02-21T07:36:05;97355.16;;;1.96;100.00
24306;BME280;12423;48.768;8.850;2023-02-21T07:38:06;97357.56;;;2.01;100.00
24306;BME280;12423;48.768;8.850;2023-02-21T07:40:07;97356.44;;;2.07;100.00
24306;BME280;12423;48.768;8.850;2023-02-21T07:42:08;97358.13;;;2.08;100.00
24306;BME280;12423;48.768;8.850;2023-02-21T07:44:09;97357.13;;;2.10;100.00
24306;BME280;12423;48.768;8.850;2023-02-21T07:46:12;97359.44;;;2.18;100.00
24306;BME280;12423;48.768;8.850;2023-02-21T07:48:15;97356.13;;;2.13;100.00
24306;BME280;12423;48.768;8.850;2023-02-21T07:50:16;97360.63;;;2.30;100.00
24306;BME280;12423;48.768;8.850;2023-02-21T07:52:17;97360.88;;;2.43;100.00
24306;BME280;12423;48.768;8.850;2023-02-21T07:54:18;97368.19;;;2.55;100.00
24306;BME280;12423;48.768;8.850;2023-02-21T07:56:19;97361.38;;;2.68;100.00
24306;BME280;12423;48.768;8.850;2023-02-21T07:58:20;97362.16;;;2.70;100.00
24306;BME280;12423;48.768;8.850;2023-02-21T08:00:21;97358.44;;;2.74;100.00
24306;BME280;12423;48.768;8.850;2023-02-21T08:02:24;97359.78;;;2.83;100.00
24306;BME280;12423;48.768;8.850;2023-02-21T08:04:25;97355.81;;;2.92;100.00
24306;BME280;12423;48.768;8.850;2023-02-21T08:06:27;97353.41;;;3.05;100.00
24306;BME280;12423;48.768;8.850;2023-02-21T08:08:28;97353.88;;;3.13;100.00
24306;BME280;12423;48.768;8.850;2023-02-21T08:10:30;97358.00;;;3.19;100.00
24306;BME280;12423;48.768;8.850;2023-02-21T08:12:31;97355.31;;;3.36;100.00
24306;BME280;12423;48.768;8.850;2023-02-21T08:14:33;97355.03;;;3.42;100.00
24306;BME280;12423;48.768;8.850;2023-02-21T08:16:34;97353.66;;;3.51;100.00
24306;BME280;12423;48.768;8.850;2023-02-21T08:18:35;97361.97;;;3.61;100.00
24306;BME280;12423;48.768;8.850;2023-02-21T08:20:36;97356.69;;;3.61;100.00
24306;BME280;12423;48.768;8.850;2023-02-21T08:22:37;97366.53;;;3.75;100.00
24306;BME280;12423;48.768;8.850;2023-02-21T08:24:38;97356.03;;;3.73;100.00
24306;BME280;12423;48.768;8.850;2023-02-21T08:26:40;97347.97;;;3.92;100.00
24306;BME280;12423;48.768;8.850;2023-02-21T08:28:41;97355.91;;;4.08;100.00
24306;BME280;12423;48.768;8.850;2023-02-21T08:30:42;97358.75;;;4.21;100.00
24306;BME280;12423;48.768;8.850;2023-02-21T08:32:44;97359.94;;;4.31;100.00
24306;BME280;12423;48.768;8.850;2023-02-21T08:34:48;97355.50;;;4.32;100.00
24306;BME280;12423;48.768;8.850;2023-02-21T08:36:49;97362.59;;;4.47;100.00
24306;BME280;12423;48.768;8.850;2023-02-21T08:38:50;97362.03;;;4.56;100.00
24306;BME280;12423;48.768;8.850;2023-02-21T08:40:52;97359.72;;;4.66;100.00
24306;BME280;12423;48.768;8.850;2023-02-21T08:42:53;97357.75;;;4.70;100.00
24306;BME280;12423;48.768;8.850;2023-02-21T08:44:54;97358.84;;;4.82;100.00
24306;BME280;12423;48.768;8.850;2023-02-21T08:46:57;97361.22;;;4.86;100.00
24306;BME280;12423;48.768;8.850;2023-02-21T08:48:58;97358.28;;;5.07;100.00
24306;BME280;12423;48.768;8.850;2023-02-21T08:50:59;97358.59;;;5.16;100.00
24306;BME280;12423;48.768;8.850;2023-02-21T08:53:00;97353.78;;;5.23;100.00
24306;BME280;12423;48.768;8.850;2023-02-21T08:55:01;97351.84;;;5.41;100.00
24306;BME280;12423;48.768;8.850;2023-02-21T08:57:02;97351.16;;;5.52;100.00
24306;BME280;12423;48.768;8.850;2023-02-21T08:59:03;97348.53;;;5.52;100.00
24306;BME280;12423;48.768;8.850;2023-02-21T09:01:05;97353.84;;;5.66;100.00
24306;BME280;12423;48.768;8.850;2023-02-21T09:03:06;97353.84;;;5.81;100.00
24306;BME280;12423;48.768;8.850;2023-02-21T09:05:10;97356.66;;;5.92;100.00
24306;BME280;12423;48.768;8.850;2023-02-21T09:07:12;97349.13;;;6.00;100.00
24306;BME280;12423;48.768;8.850;2023-02-21T09:09:13;97351.28;;;6.08;100.00
24306;BME280;12423;48.768;8.850;2023-02-21T09:11:14;97357.06;;;6.15;100.00
24306;BME280;12423;48.768;8.850;2023-02-21T09:13:15;97349.28;;;6.26;100.00
24306;BME280;12423;48.768;8.850;2023-02-21T09:15:16;97347.00;;;6.34;100.00
24306;BME280;12423;48.768;8.850;2023-02-21T09:17:17;97352.38;;;6.47;100.00
24306;BME280;12423;48.768;8.850;2023-02-21T09:19:18;97348.81;;;6.61;100.00
24306;BME280;12423;48.768;8.850;2023-02-21T09:21:21;97347.59;;;6.79;100.00
24306;BME280;12423;48.768;8.850;2023-02-21T09:23:25;97343.84;;;6.96;100.00
24306;BME280;12423;48.768;8.850;2023-02-21T09:25:26;97336.50;;;7.00;100.00
24306;BME280;12423;48.768;8.850;2023-02-21T09:27:27;97341.41;;;7.06;100.00
24306;BME280;12423;48.768;8.850;2023-02-21T09:29:37;97341.75;;;7.14;100.00
24306;BME280;12423;48.768;8.850;2023-02-21T09:31:38;97333.69;;;7.29;100.00
24306;BME280;12423;48.768;8.850;2023-02-21T09:33:39;97343.06;;;7.34;100.00
24306;BME280;12423;48.768;8.850;2023-02-21T09:35:40;97339.00;;;7.42;100.00
24306;BME280;12423;48.768;8.850;2023-02-21T09:37:43;97349.88;;;7.51;100.00
24306;BME280;12423;48.768;8.850;2023-02-21T09:39:44;97343.06;;;7.60;100.00
24306;BME280;12423;48.768;8.850;2023-02-21T09:41:47;97342.63;;;7.66;100.00
24306;BME280;12423;48.768;8.850;2023-02-21T09:43:50;97336.91;;;7.72;100.00
24306;BME280;12423;48.768;8.850;2023-02-21T09:45:53;97331.84;;;7.93;100.00
24306;BME280;12423;48.768;8.850;2023-02-21T09:47:59;97329.06;;;8.08;100.00
24306;BME280;12423;48.768;8.850;2023-02-21T09:50:12;97327.91;;;8.12;100.00
24306;BME280;12423;48.768;8.850;2023-02-21T09:52:24;97336.19;;;8.20;100.00
24306;BME280;12423;48.768;8.850;2023-02-21T09:54:33;97329.53;;;8.39;100.00
24306;BME280;12423;48.768;8.850;2023-02-21T09:56:38;97332.94;;;8.41;100.00
24306;BME280;12423;48.768;8.850;2023-02-21T09:58:42;97336.22;;;8.57;100.00
24306;BME280;12423;48.768;8.850;2023-02-21T10:00:43;97330.94;;;8.69;100.00
24306;BME280;12423;48.768;8.850;2023-02-21T10:02:53;97325.94;;;8.88;100.00
24306;BME280;12423;48.768;8.850;2023-02-21T10:07:38;97323.38;;;9.11;100.00
24306;BME280;12423;48.768;8.850;2023-02-21T10:09:44;97319.78;;;9.23;100.00
24306;BME280;12423;48.768;8.850;2023-02-21T10:11:58;97325.38;;;9.31;100.00
24306;BME280;12423;48.768;8.850;2023-02-21T10:14:29;97321.91;;;9.42;100.00
24306;BME280;12423;48.768;8.850;2023-02-21T10:17:03;97320.59;;;9.59;100.00
24306;BME280;12423;48.768;8.850;2023-02-21T10:19:13;97322.63;;;9.67;100.00
24306;BME280;12423;48.768;8.850;2023-02-21T10:21:24;97315.13;;;9.83;100.00
24306;BME280;12423;48.768;8.850;2023-02-21T10:23:34;97314.28;;;9.94;100.00
24306;BME280;12423;48.768;8.850;2023-02-21T10:25:40;97307.97;;;10.06;100.00
24306;BME280;12423;48.768;8.850;2023-02-21T10:27:42;97312.34;;;10.19;100.00
24306;BME280;12423;48.768;8.850;2023-02-21T10:29:57;97311.34;;;10.31;100.00
24306;BME280;12423;48.768;8.850;2023-02-21T10:32:02;97305.78;;;10.34;100.00
24306;BME280;12423;48.768;8.850;2023-02-21T10:34:06;97302.72;;;10.50;100.00
24306;BME280;12423;48.768;8.850;2023-02-21T10:36:13;97302.13;;;10.58;100.00
24306;BME280;12423;48.768;8.850;2023-02-21T10:38:20;97307.03;;;10.74;100.00
24306;BME280;12423;48.768;8.850;2023-02-21T10:40:37;97306.03;;;10.86;100.00
24306;BME280;12423;48.768;8.850;2023-02-21T10:42:43;97310.66;;;11.05;100.00
24306;BME280;12423;48.768;8.850;2023-02-21T10:44:47;97302.25;;;11.10;100.00
24306;BME280;12423;48.768;8.850;2023-02-21T10:47:00;97306.63;;;11.32;97.61
24306;BME280;12423;48.768;8.850;2023-02-21T10:49:22;97303.88;;;11.64;96.10
24306;BME280;12423;48.768;8.850;2023-02-21T10:51:30;97305.78;;;11.73;96.17
24306;BME280;12423;48.768;8.850;2023-02-21T10:53:35;97299.56;;;11.73;93.63
24306;BME280;12423;48.768;8.850;2023-02-21T10:55:36;97286.91;;;11.75;94.35
24306;BME280;12423;48.768;8.850;2023-02-21T10:57:42;97294.84;;;11.86;88.14
24306;BME280;12423;48.768;8.850;2023-02-21T10:59:47;97296.28;;;11.90;87.62
24306;BME280;12423;48.768;8.850;2023-02-21T11:01:48;97297.78;;;12.14;88.92
24306;BME280;12423;48.768;8.850;2023-02-21T11:03:53;97295.63;;;12.39;87.02
24306;BME280;12423;48.768;8.850;2023-02-21T11:05:55;97292.13;;;12.48;85.69
24306;BME280;12423;48.768;8.850;2023-02-21T11:08:04;97286.50;;;12.61;84.23
24306;BME280;12423;48.768;8.850;2023-02-21T11:10:30;97280.88;;;13.13;81.21
24306;BME280;12423;48.768;8.850;2023-02-21T11:12:32;97287.19;;;13.51;79.91
24306;BME280;12423;48.768;8.850;2023-02-21T11:14:33;97275.97;;;13.85;79.77
24306;BME280;12423;48.768;8.850;2023-02-21T11:16:34;97266.78;;;14.15;75.36
24306;BME280;12423;48.768;8.850;2023-02-21T11:18:36;97266.41;;;14.83;71.73
24306;BME280;12423;48.768;8.850;2023-02-21T11:20:37;97263.09;;;15.78;70.09
24306;BME280;12423;48.768;8.850;2023-02-21T11:22:43;97255.78;;;17.47;64.59
24306;BME280;12423;48.768;8.850;2023-02-21T11:27:12;97246.16;;;20.02;51.01
24306;BME280;12423;48.768;8.850;2023-02-21T11:29:17;97238.72;;;21.85;48.97
24306;BME280;12423;48.768;8.850;2023-02-21T11:31:31;97234.75;;;22.64;44.30
24306;BME280;12423;48.768;8.850;2023-02-21T11:33:35;97237.03;;;23.83;42.49
24306;BME280;12423;48.768;8.850;2023-02-21T11:35:45;97227.63;;;24.51;40.42
24306;BME280;12423;48.768;8.850;2023-02-21T11:37:59;97225.41;;;25.18;37.12
24306;BME280;12423;48.768;8.850;2023-02-21T11:40:00;97218.59;;;26.40;36.35
24306;BME280;12423;48.768;8.850;2023-02-21T11:42:03;97214.22;;;26.20;34.13
24306;BME280;12423;48.768;8.850;2023-02-21T11:48:49;97204.22;;;28.65;30.79